sensor_id;sensor_type;location;lat;lon;timestamp;pressure;altitude;pressure_sealevel;temperature;humidity
72961;BME280;61141;46.204;19.774;2024-03-29T00:02:41;99779.97;;;8.66;100.00
72961;BME280;61141;46.204;19.774;2024-03-29T00:05:43;99772.75;;;8.81;100.00
72961;BME280;61141;46.204;19.774;2024-03-29T00:08:44;99775.13;;;8.82;100.00
72961;BME280;61141;46.204;19.774;2024-03-29T00:11:46;99777.44;;;8.80;100.00
72961;BME280;61141;46.204;19.774;2024-03-29T00:14:48;99791.69;;;8.97;100.00
72961;BME280;61141;46.204;19.774;2024-03-29T00:17:50;99778.53;;;9.06;100.00
72961;BME280;61141;46.204;19.774;2024-03-29T00:20:52;99787.63;;;9.17;100.00
72961;BME280;61141;46.204;19.774;2024-03-29T00:23:54;99788.37;;;8.80;100.00
72961;BME280;61141;46.204;19.774;2024-03-29T00:26:55;99802.84;;;9.18;100.00
72961;BME280;61141;46.204;19.774;2024-03-29T00:29:57;99805.00;;;8.72;100.00
72961;BME280;61141;46.204;19.774;2024-03-29T00:32:59;99819.19;;;9.14;100.00
72961;BME280;61141;46.204;19.774;2024-03-29T00:36:01;99827.31;;;9.07;100.00
72961;BME280;61141;46.204;19.774;2024-03-29T00:39:03;99795.03;;;9.16;100.00
72961;BME280;61141;46.204;19.774;2024-03-29T00:42:05;99807.16;;;8.85;100.00
72961;BME280;61141;46.204;19.774;2024-03-29T00:45:10;99808.66;;;9.13;100.00
72961;BME280;61141;46.204;19.774;2024-03-29T00:48:11;99814.69;;;9.29;100.00
72961;BME280;61141;46.204;19.774;2024-03-29T00:51:16;99830.31;;;9.28;100.00
72961;BME280;61141;46.204;19.774;2024-03-29T00:54:18;99828.00;;;9.30;100.00
72961;BME280;61141;46.204;19.774;2024-03-29T00:57:21;99842.06;;;9.32;100.00
72961;BME280;61141;46.204;19.774;2024-03-29T01:00:23;99840.87;;;9.30;100.00
72961;BME280;61141;46.204;19.774;2024-03-29T01:03:24;99833.81;;;9.29;100.00
72961;BME280;61141;46.204;19.774;2024-03-29T01:06:29;99834.22;;;9.31;100.00
72961;BME280;61141;46.204;19.774;2024-03-29T01:09:30;99822.38;;;9.20;100.00
72961;BME280;61141;46.204;19.774;2024-03-29T01:12:32;99822.06;;;9.25;100.00
72961;BME280;61141;46.204;19.774;2024-03-29T01:15:34;99834.63;;;9.29;100.00
72961;BME280;61141;46.204;19.774;2024-03-29T01:18:35;99857.91;;;9.20;100.00
72961;BME280;61141;46.204;19.774;2024-03-29T01:21:37;99878.56;;;9.17;100.00
72961;BME280;61141;46.204;19.774;2024-03-29T01:24:39;99880.94;;;9.19;100.00
72961;BME280;61141;46.204;19.774;2024-03-29T01:27:40;99866.53;;;9.22;100.00
72961;BME280;61141;46.204;19.774;2024-03-29T01:30:42;99904.38;;;9.20;100.00
72961;BME280;61141;46.204;19.774;2024-03-29T01:33:44;99907.88;;;9.17;100.00
72961;BME280;61141;46.204;19.774;2024-03-29T01:36:46;99890.34;;;9.21;100.00
72961;BME280;61141;46.204;19.774;2024-03-29T01:39:48;99902.06;;;9.22;100.00
72961;BME280;61141;46.204;19.774;2024-03-29T01:42:53;99916.16;;;9.24;100.00
72961;BME280;61141;46.204;19.774;2024-03-29T01:45:56;99906.69;;;9.18;100.00
72961;BME280;61141;46.204;19.774;2024-03-29T01:48:58;99916.81;;;9.17;100.00
72961;BME280;61141;46.204;19.774;2024-03-29T01:52:00;99931.66;;;9.16;100.00
72961;BME280;61141;46.204;19.774;2024-03-29T01:55:05;99937.00;;;9.09;100.00
72961;BME280;61141;46.204;19.774;2024-03-29T01:58:08;99963.53;;;9.09;100.00
72961;BME280;61141;46.204;19.774;2024-03-29T02:01:11;99980.69;;;9.06;100.00
72961;BME280;61141;46.204;19.774;2024-03-29T02:04:14;99987.41;;;9.12;100.00
72961;BME280;61141;46.204;19.774;2024-03-29T02:07:16;99979.13;;;9.05;100.00
72961;BME280;61141;46.204;19.774;2024-03-29T02:10:18;99998.09;;;8.98;100.00
72961;BME280;61141;46.204;19.774;2024-03-29T02:13:20;100020.50;;;9.07;100.00
72961;BME280;61141;46.204;19.774;2024-03-29T02:16:22;100005.78;;;9.15;100.00
72961;BME280;61141;46.204;19.774;2024-03-29T02:19:23;100011.22;;;9.11;100.00
72961;BME280;61141;46.204;19.774;2024-03-29T02:22:27;100001.62;;;8.98;100.00
72961;BME280;61141;46.204;19.774;2024-03-29T02:25:28;100008.94;;;8.91;100.00
72961;BME280;61141;46.204;19.774;2024-03-29T02:28:30;100005.06;;;8.92;100.00
72961;BME280;61141;46.204;19.774;2024-03-29T02:31:32;100011.59;;;8.87;100.00
72961;BME280;61141;46.204;19.774;2024-03-29T02:34:34;100028.75;;;8.61;100.00
72961;BME280;61141;46.204;19.774;2024-03-29T02:37:36;100012.03;;;8.44;100.00
72961;BME280;61141;46.204;19.774;2024-03-29T02:40:38;100030.41;;;8.47;100.00
72961;BME280;61141;46.204;19.774;2024-03-29T02:43:40;100031.16;;;8.44;100.00
72961;BME280;61141;46.204;19.774;2024-03-29T02:46:42;100047.44;;;8.40;100.00
72961;BME280;61141;46.204;19.774;2024-03-29T02:49:43;100048.53;;;8.36;100.00
72961;BME280;61141;46.204;19.774;2024-03-29T02:52:45;100040.84;;;8.22;100.00
72961;BME280;61141;46.204;19.774;2024-03-29T02:55:47;100054.06;;;8.20;100.00
72961;BME280;61141;46.204;19.774;2024-03-29T02:58:49;100067.13;;;8.11;100.00
72961;BME280;61141;46.204;19.774;2024-03-29T03:01:50;100067.25;;;7.99;100.00
72961;BME280;61141;46.204;19.774;2024-03-29T03:04:52;100078.47;;;7.94;100.00
72961;BME280;61141;46.204;19.774;2024-03-29T03:07:54;100091.16;;;8.05;100.00
72961;BME280;61141;46.204;19.774;2024-03-29T03:11:14;100096.03;;;8.15;100.00
72961;BME280;61141;46.204;19.774;2024-03-29T03:14:16;100095.00;;;8.01;100.00
72961;BME280;61141;46.204;19.774;2024-03-29T03:17:17;100101.91;;;7.98;100.00
72961;BME280;61141;46.204;19.774;2024-03-29T03:20:19;100104.38;;;8.03;100.00
72961;BME280;61141;46.204;19.774;2024-03-29T03:23:21;100113.62;;;7.99;100.00
72961;BME280;61141;46.204;19.774;2024-03-29T03:26:23;100109.59;;;7.93;100.00
72961;BME280;61141;46.204;19.774;2024-03-29T03:29:25;100112.19;;;7.86;100.00
72961;BME280;61141;46.204;19.774;2024-03-29T03:32:27;100128.44;;;7.98;100.00
72961;BME280;61141;46.204;19.774;2024-03-29T03:35:29;100122.00;;;7.90;100.00
72961;BME280;61141;46.204;19.774;2024-03-29T03:38:31;100125.00;;;8.01;100.00
72961;BME280;61141;46.204;19.774;2024-03-29T03:41:33;100126.84;;;7.97;100.00
72961;BME280;61141;46.204;19.774;2024-03-29T03:44:34;100125.41;;;8.03;100.00
72961;BME280;61141;46.204;19.774;2024-03-29T03:47:36;100116.81;;;8.20;100.00
72961;BME280;61141;46.204;19.774;2024-03-29T03:50:38;100115.94;;;8.16;100.00
72961;BME280;61141;46.204;19.774;2024-03-29T03:53:40;100115.00;;;7.89;100.00
72961;BME280;61141;46.204;19.774;2024-03-29T03:56:41;100144.78;;;7.98;100.00
72961;BME280;61141;46.204;19.774;2024-03-29T03:59:44;100143.34;;;8.04;100.00
72961;BME280;61141;46.204;19.774;2024-03-29T04:02:52;100148.66;;;7.97;100.00
72961;BME280;61141;46.204;19.774;2024-03-29T04:05:54;100148.06;;;7.88;100.00
72961;BME280;61141;46.204;19.774;2024-03-29T04:08:55;100170.75;;;7.92;100.00
72961;BME280;61141;46.204;19.774;2024-03-29T04:11:57;100156.69;;;7.90;100.00
72961;BME280;61141;46.204;19.774;2024-03-29T04:14:59;100154.09;;;7.97;100.00
72961;BME280;61141;46.204;19.774;2024-03-29T04:18:00;100160.00;;;7.99;100.00
72961;BME280;61141;46.204;19.774;2024-03-29T04:21:03;100157.34;;;8.02;100.00
72961;BME280;61141;46.204;19.774;2024-03-29T04:24:05;100161.22;;;8.01;100.00
72961;BME280;61141;46.204;19.774;2024-03-29T04:27:08;100157.47;;;7.90;100.00
72961;BME280;61141;46.204;19.774;2024-03-29T04:30:11;100164.12;;;7.93;100.00
72961;BME280;61141;46.204;19.774;2024-03-29T04:33:12;100175.50;;;7.95;100.00
72961;BME280;61141;46.204;19.774;2024-03-29T04:36:14;100178.22;;;7.95;100.00
72961;BME280;61141;46.204;19.774;2024-03-29T04:39:16;100164.06;;;7.89;100.00
72961;BME280;61141;46.204;19.774;2024-03-29T04:42:18;100182.97;;;7.98;100.00
72961;BME280;61141;46.204;19.774;2024-03-29T04:45:19;100174.50;;;8.03;100.00
72961;BME280;61141;46.204;19.774;2024-03-29T04:48:21;100177.56;;;8.01;100.00
72961;BME280;61141;46.204;19.774;2024-03-29T04:51:23;100174.22;;;8.08;100.00
72961;BME280;61141;46.204;19.774;2024-03-29T04:54:25;100172.16;;;8.20;100.00
72961;BME280;61141;46.204;19.774;2024-03-29T04:57:27;100176.56;;;8.25;100.00
72961;BME280;61141;46.204;19.774;2024-03-29T05:00:29;100184.19;;;8.35;100.00
72961;BME280;61141;46.204;19.774;2024-03-29T05:03:30;100189.75;;;8.39;100.00
72961;BME280;61141;46.204;19.774;2024-03-29T05:06:33;100188.88;;;8.54;100.00
72961;BME280;61141;46.204;19.774;2024-03-29T05:09:35;100191.81;;;8.64;100.00
72961;BME280;61141;46.204;19.774;2024-03-29T05:12:37;100199.72;;;8.69;100.00
72961;BME280;61141;46.204;19.774;2024-03-29T05:15:38;100202.87;;;8.71;100.00
72961;BME280;61141;46.204;19.774;2024-03-29T05:18:40;100208.25;;;8.87;100.00
72961;BME280;61141;46.204;19.774;2024-03-29T05:21:42;100207.97;;;8.92;100.00
72961;BME280;61141;46.204;19.774;2024-03-29T05:24:44;100217.16;;;9.03;100.00
72961;BME280;61141;46.204;19.774;2024-03-29T05:27:45;100218.81;;;9.08;100.00
72961;BME280;61141;46.204;19.774;2024-03-29T05:30:47;100220.53;;;9.16;100.00
72961;BME280;61141;46.204;19.774;2024-03-29T05:33:49;100236.53;;;9.17;100.00
72961;BME280;61141;46.204;19.774;2024-03-29T05:36:51;100234.06;;;9.31;100.00
72961;BME280;61141;46.204;19.774;2024-03-29T05:39:53;100246.72;;;9.39;100.00
72961;BME280;61141;46.204;19.774;2024-03-29T05:43:01;100253.06;;;9.43;100.00
72961;BME280;61141;46.204;19.774;2024-03-29T05:46:03;100265.38;;;9.57;100.00
72961;BME280;61141;46.204;19.774;2024-03-29T05:49:05;100262.91;;;9.71;100.00
72961;BME280;61141;46.204;19.774;2024-03-29T05:52:06;100265.47;;;9.83;100.00
72961;BME280;61141;46.204;19.774;2024-03-29T05:55:08;100268.84;;;9.99;100.00
72961;BME280;61141;46.204;19.774;2024-03-29T05:58:11;100272.84;;;10.05;100.00
72961;BME280;61141;46.204;19.774;2024-03-29T06:01:18;100280.56;;;10.22;100.00
72961;BME280;61141;46.204;19.774;2024-03-29T06:04:20;100274.59;;;10.17;100.00
72961;BME280;61141;46.204;19.774;2024-03-29T06:07:31;100275.03;;;10.19;100.00
72961;BME280;61141;46.204;19.774;2024-03-29T06:10:34;100280.06;;;10.17;100.00
72961;BME280;61141;46.204;19.774;2024-03-29T06:13:36;100274.81;;;10.31;100.00
72961;BME280;61141;46.204;19.774;2024-03-29T06:16:56;100270.66;;;10.40;100.00
72961;BME280;61141;46.204;19.774;2024-03-29T06:20:16;100280.41;;;10.38;100.00
72961;BME280;61141;46.204;19.774;2024-03-29T06:23:18;100279.50;;;10.56;100.00
72961;BME280;61141;46.204;19.774;2024-03-29T06:26:19;100268.81;;;10.48;100.00
72961;BME280;61141;46.204;19.774;2024-03-29T06:29:22;100284.84;;;10.76;100.00
72961;BME280;61141;46.204;19.774;2024-03-29T06:32:24;100277.75;;;10.71;100.00
72961;BME280;61141;46.204;19.774;2024-03-29T06:35:26;100280.22;;;10.80;100.00
72961;BME280;61141;46.204;19.774;2024-03-29T06:38:27;100301.41;;;10.86;100.00
72961;BME280;61141;46.204;19.774;2024-03-29T06:41:29;100307.75;;;11.24;100.00
72961;BME280;61141;46.204;19.774;2024-03-29T06:44:31;100298.91;;;11.37;100.00
72961;BME280;61141;46.204;19.774;2024-03-29T06:47:33;100314.34;;;11.52;100.00
72961;BME280;61141;46.204;19.774;2024-03-29T06:50:34;100298.25;;;11.51;100.00
72961;BME280;61141;46.204;19.774;2024-03-29T06:53:36;100298.25;;;11.51;100.00
72961;BME280;61141;46.204;19.774;2024-03-29T06:56:39;100305.34;;;11.55;100.00
72961;BME280;61141;46.204;19.774;2024-03-29T06:59:41;100309.19;;;11.84;99.32
72961;BME280;61141;46.204;19.774;2024-03-29T07:02:43;100301.87;;;11.99;97.63
72961;BME280;61141;46.204;19.774;2024-03-29T07:05:46;100301.84;;;11.95;96.88
72961;BME280;61141;46.204;19.774;2024-03-29T07:08:47;100321.63;;;12.18;97.51
72961;BME280;61141;46.204;19.774;2024-03-29T07:11:51;100332.47;;;12.48;96.44
72961;BME280;61141;46.204;19.774;2024-03-29T07:14:52;100326.69;;;12.64;96.20
72961;BME280;61141;46.204;19.774;2024-03-29T07:17:54;100323.97;;;12.71;96.06
72961;BME280;61141;46.204;19.774;2024-03-29T07:20:57;100321.28;;;12.81;94.11
72961;BME280;61141;46.204;19.774;2024-03-29T07:23:59;100327.63;;;12.92;95.21
72961;BME280;61141;46.204;19.774;2024-03-29T07:27:01;100323.81;;;13.11;92.63
72961;BME280;61141;46.204;19.774;2024-03-29T07:30:03;100324.16;;;13.03;92.02
72961;BME280;61141;46.204;19.774;2024-03-29T07:33:09;100323.75;;;13.01;91.10
72961;BME280;61141;46.204;19.774;2024-03-29T07:36:12;100336.38;;;13.12;89.88
72961;BME280;61141;46.204;19.774;2024-03-29T07:39:14;100333.72;;;13.37;88.58
72961;BME280;61141;46.204;19.774;2024-03-29T07:42:16;100335.31;;;13.45;89.08
72961;BME280;61141;46.204;19.774;2024-03-29T07:45:18;100343.62;;;13.56;87.61
72961;BME280;61141;46.204;19.774;2024-03-29T07:48:20;100347.56;;;13.62;86.87
72961;BME280;61141;46.204;19.774;2024-03-29T07:51:22;100351.06;;;13.44;84.25
72961;BME280;61141;46.204;19.774;2024-03-29T07:54:24;100356.22;;;13.67;82.53
72961;BME280;61141;46.204;19.774;2024-03-29T07:57:26;100347.22;;;13.95;84.15
72961;BME280;61141;46.204;19.774;2024-03-29T08:00:27;100352.00;;;14.19;83.44
72961;BME280;61141;46.204;19.774;2024-03-29T08:03:29;100353.97;;;14.50;80.19
72961;BME280;61141;46.204;19.774;2024-03-29T08:06:34;100342.19;;;14.36;81.67
72961;BME280;61141;46.204;19.774;2024-03-29T08:09:35;100345.69;;;14.64;81.02
72961;BME280;61141;46.204;19.774;2024-03-29T08:12:37;100336.22;;;14.80;80.02
72961;BME280;61141;46.204;19.774;2024-03-29T08:15:39;100351.97;;;14.83;73.79
72961;BME280;61141;46.204;19.774;2024-03-29T08:18:40;100342.91;;;14.68;73.85
72961;BME280;61141;46.204;19.774;2024-03-29T08:21:42;100344.06;;;14.85;71.94
72961;BME280;61141;46.204;19.774;2024-03-29T08:24:44;100337.78;;;14.74;69.78
72961;BME280;61141;46.204;19.774;2024-03-29T08:27:46;100349.16;;;14.97;69.38
72961;BME280;61141;46.204;19.774;2024-03-29T08:30:58;100353.09;;;14.99;67.08
72961;BME280;61141;46.204;19.774;2024-03-29T08:34:00;100358.53;;;15.24;67.73
72961;BME280;61141;46.204;19.774;2024-03-29T08:37:03;100353.72;;;15.46;67.09
72961;BME280;61141;46.204;19.774;2024-03-29T08:40:05;100348.16;;;15.53;68.05
72961;BME280;61141;46.204;19.774;2024-03-29T08:43:07;100346.13;;;15.64;66.87
72961;BME280;61141;46.204;19.774;2024-03-29T08:46:10;100346.41;;;15.83;66.88
72961;BME280;61141;46.204;19.774;2024-03-29T08:49:11;100352.28;;;15.89;65.68
72961;BME280;61141;46.204;19.774;2024-03-29T08:52:13;100348.91;;;16.19;67.65
72961;BME280;61141;46.204;19.774;2024-03-29T08:55:16;100351.31;;;16.17;64.78
72961;BME280;61141;46.204;19.774;2024-03-29T08:58:18;100344.03;;;16.37;64.36
72961;BME280;61141;46.204;19.774;2024-03-29T09:01:21;100342.44;;;16.39;66.48
72961;BME280;61141;46.204;19.774;2024-03-29T09:04:23;100339.94;;;16.56;66.21
72961;BME280;61141;46.204;19.774;2024-03-29T09:07:25;100337.00;;;16.73;63.33
72961;BME280;61141;46.204;19.774;2024-03-29T09:10:27;100329.75;;;16.86;64.80
72961;BME280;61141;46.204;19.774;2024-03-29T09:13:30;100332.22;;;16.77;64.31
72961;BME280;61141;46.204;19.774;2024-03-29T09:16:33;100337.19;;;16.93;65.88
72961;BME280;61141;46.204;19.774;2024-03-29T09:19:34;100328.37;;;17.01;64.56
72961;BME280;61141;46.204;19.774;2024-03-29T09:22:37;100340.03;;;17.20;62.54
72961;BME280;61141;46.204;19.774;2024-03-29T09:25:41;100337.94;;;17.31;61.99
72961;BME280;61141;46.204;19.774;2024-03-29T09:28:43;100337.81;;;17.38;62.77
72961;BME280;61141;46.204;19.774;2024-03-29T09:31:45;100335.34;;;17.47;63.05
72961;BME280;61141;46.204;19.774;2024-03-29T09:34:47;100332.94;;;17.49;63.06
72961;BME280;61141;46.204;19.774;2024-03-29T09:37:48;100328.84;;;17.87;65.03
72961;BME280;61141;46.204;19.774;2024-03-29T09:43:59;100318.03;;;17.96;64.25
72961;BME280;61141;46.204;19.774;2024-03-29T09:47:04;100326.34;;;17.96;62.03
72961;BME280;61141;46.204;19.774;2024-03-29T09:50:07;100313.09;;;18.07;63.22
72961;BME280;61141;46.204;19.774;2024-03-29T09:53:09;100314.19;;;18.13;62.47
72961;BME280;61141;46.204;19.774;2024-03-29T09:56:11;100316.25;;;18.33;63.77
72961;BME280;61141;46.204;19.774;2024-03-29T09:59:13;100321.44;;;18.31;62.76
72961;BME280;61141;46.204;19.774;2024-03-29T10:02:16;100315.31;;;18.39;62.90
72961;BME280;61141;46.204;19.774;2024-03-29T10:05:21;100315.69;;;18.64;61.89
72961;BME280;61141;46.204;19.774;2024-03-29T10:08:24;100307.75;;;18.66;61.64
72961;BME280;61141;46.204;19.774;2024-03-29T10:11:27;100290.53;;;18.75;61.56
72961;BME280;61141;46.204;19.774;2024-03-29T10:14:30;100291.84;;;18.67;61.81
72961;BME280;61141;46.204;19.774;2024-03-29T10:17:32;100290.88;;;18.57;63.03
72961;BME280;61141;46.204;19.774;2024-03-29T10:20:34;100296.56;;;18.70;63.57
72961;BME280;61141;46.204;19.774;2024-03-29T10:23:36;100292.16;;;18.72;65.01
72961;BME280;61141;46.204;19.774;2024-03-29T10:26:38;100294.75;;;18.83;65.54
72961;BME280;61141;46.204;19.774;2024-03-29T10:29:40;100282.84;;;19.02;64.11
72961;BME280;61141;46.204;19.774;2024-03-29T10:32:42;100292.78;;;19.19;64.38
72961;BME280;61141;46.204;19.774;2024-03-29T10:35:44;100287.03;;;19.50;64.09
72961;BME280;61141;46.204;19.774;2024-03-29T10:38:46;100279.06;;;19.68;63.95
72961;BME280;61141;46.204;19.774;2024-03-29T10:41:49;100281.06;;;19.83;63.54
72961;BME280;61141;46.204;19.774;2024-03-29T10:44:53;100274.03;;;19.95;61.52
72961;BME280;61141;46.204;19.774;2024-03-29T10:47:58;100272.81;;;20.28;61.64
72961;BME280;61141;46.204;19.774;2024-03-29T10:51:00;100266.00;;;20.45;58.13
72961;BME280;61141;46.204;19.774;2024-03-29T10:54:02;100262.19;;;20.39;58.48
72961;BME280;61141;46.204;19.774;2024-03-29T10:57:16;100260.19;;;20.40;57.20
72961;BME280;61141;46.204;19.774;2024-03-29T11:00:22;100253.75;;;20.43;59.04
72961;BME280;61141;46.204;19.774;2024-03-29T11:03:38;100249.94;;;20.37;59.18
72961;BME280;61141;46.204;19.774;2024-03-29T11:06:43;100245.41;;;20.43;58.43
72961;BME280;61141;46.204;19.774;2024-03-29T11:09:50;100225.56;;;20.70;59.06
72961;BME280;61141;46.204;19.774;2024-03-29T11:13:01;100230.91;;;20.77;59.04
72961;BME280;61141;46.204;19.774;2024-03-29T11:16:05;100221.34;;;20.78;58.61
72961;BME280;61141;46.204;19.774;2024-03-29T11:19:07;100212.25;;;20.90;58.28
72961;BME280;61141;46.204;19.774;2024-03-29T11:22:09;100214.28;;;21.02;57.55
72961;BME280;61141;46.204;19.774;2024-03-29T11:25:11;100209.81;;;20.92;57.87
72961;BME280;61141;46.204;19.774;2024-03-29T11:28:21;100201.88;;;20.78;55.41
72961;BME280;61141;46.204;19.774;2024-03-29T11:31:25;100199.50;;;20.64;56.38
72961;BME280;61141;46.204;19.774;2024-03-29T11:34:31;100206.78;;;20.86;55.10
72961;BME280;61141;46.204;19.774;2024-03-29T11:37:36;100201.22;;;20.86;56.05
72961;BME280;61141;46.204;19.774;2024-03-29T11:40:38;100205.34;;;20.94;56.30
72961;BME280;61141;46.204;19.774;2024-03-29T11:43:41;100195.00;;;20.95;54.72
72961;BME280;61141;46.204;19.774;2024-03-29T11:46:45;100184.13;;;21.26;56.54
72961;BME280;61141;46.204;19.774;2024-03-29T11:49:56;100182.00;;;21.30;52.86
72961;BME280;61141;46.204;19.774;2024-03-29T11:52:57;100171.06;;;21.35;53.02
72961;BME280;61141;46.204;19.774;2024-03-29T11:56:04;100169.09;;;21.48;52.47
72961;BME280;61141;46.204;19.774;2024-03-29T11:59:05;100162.50;;;21.42;50.27
72961;BME280;61141;46.204;19.774;2024-03-29T12:02:13;100169.41;;;21.38;50.25
72961;BME280;61141;46.204;19.774;2024-03-29T12:05:16;100164.62;;;21.38;50.48
72961;BME280;61141;46.204;19.774;2024-03-29T12:08:18;100154.31;;;21.60;51.53
72961;BME280;61141;46.204;19.774;2024-03-29T12:11:21;100155.44;;;21.76;50.25
72961;BME280;61141;46.204;19.774;2024-03-29T12:14:23;100147.59;;;21.83;50.22
72961;BME280;61141;46.204;19.774;2024-03-29T12:17:26;100133.91;;;21.76;50.10
72961;BME280;61141;46.204;19.774;2024-03-29T12:20:35;100136.28;;;21.65;50.46
72961;BME280;61141;46.204;19.774;2024-03-29T12:23:38;100127.19;;;21.74;50.18
72961;BME280;61141;46.204;19.774;2024-03-29T12:26:41;100124.38;;;21.86;50.00
72961;BME280;61141;46.204;19.774;2024-03-29T12:29:43;100115.37;;;21.70;48.13
72961;BME280;61141;46.204;19.774;2024-03-29T12:32:45;100113.78;;;21.81;48.96
72961;BME280;61141;46.204;19.774;2024-03-29T12:35:49;100116.06;;;22.08;49.89
72961;BME280;61141;46.204;19.774;2024-03-29T12:38:55;100099.25;;;22.20;49.13
72961;BME280;61141;46.204;19.774;2024-03-29T12:42:00;100094.53;;;22.30;48.06
72961;BME280;61141;46.204;19.774;2024-03-29T12:45:02;100111.00;;;22.37;46.55
72961;BME280;61141;46.204;19.774;2024-03-29T12:51:13;100096.19;;;22.49;46.28
72961;BME280;61141;46.204;19.774;2024-03-29T12:54:15;100098.72;;;22.13;45.22
72961;BME280;61141;46.204;19.774;2024-03-29T12:57:19;100096.72;;;21.79;46.90
72961;BME280;61141;46.204;19.774;2024-03-29T13:00:22;100103.91;;;21.67;47.58
72961;BME280;61141;46.204;19.774;2024-03-29T13:03:24;100073.88;;;21.72;48.12
72961;BME280;61141;46.204;19.774;2024-03-29T13:06:26;100078.53;;;21.87;47.74
72961;BME280;61141;46.204;19.774;2024-03-29T13:09:27;100082.25;;;21.72;47.22
72961;BME280;61141;46.204;19.774;2024-03-29T13:12:29;100085.78;;;21.50;47.74
72961;BME280;61141;46.204;19.774;2024-03-29T13:15:36;100063.44;;;21.29;47.30
72961;BME280;61141;46.204;19.774;2024-03-29T13:18:38;100062.97;;;21.30;48.62
72961;BME280;61141;46.204;19.774;2024-03-29T13:21:40;100059.53;;;21.26;49.27
72961;BME280;61141;46.204;19.774;2024-03-29T13:24:41;100053.44;;;21.40;48.72
72961;BME280;61141;46.204;19.774;2024-03-29T13:27:45;100043.91;;;21.63;48.85
72961;BME280;61141;46.204;19.774;2024-03-29T13:30:47;100038.16;;;21.79;48.69
72961;BME280;61141;46.204;19.774;2024-03-29T13:33:50;100050.37;;;22.16;47.54
72961;BME280;61141;46.204;19.774;2024-03-29T13:36:53;100035.97;;;22.39;47.01
72961;BME280;61141;46.204;19.774;2024-03-29T13:39:55;100038.22;;;22.62;47.06
72961;BME280;61141;46.204;19.774;2024-03-29T13:42:57;100029.06;;;22.53;45.79
72961;BME280;61141;46.204;19.774;2024-03-29T13:45:59;100024.88;;;22.57;46.41
72961;BME280;61141;46.204;19.774;2024-03-29T13:49:02;100022.53;;;22.25;46.73
72961;BME280;61141;46.204;19.774;2024-03-29T13:52:07;100028.78;;;22.07;47.83
72961;BME280;61141;46.204;19.774;2024-03-29T13:55:09;100030.59;;;22.23;49.37
72961;BME280;61141;46.204;19.774;2024-03-29T13:58:11;100040.25;;;22.09;47.85
72961;BME280;61141;46.204;19.774;2024-03-29T14:01:13;100043.44;;;21.99;47.22
72961;BME280;61141;46.204;19.774;2024-03-29T14:04:15;100041.41;;;21.78;46.60
72961;BME280;61141;46.204;19.774;2024-03-29T14:07:17;100040.09;;;21.70;47.03
72961;BME280;61141;46.204;19.774;2024-03-29T14:10:19;100035.69;;;21.59;47.55
72961;BME280;61141;46.204;19.774;2024-03-29T14:13:21;100042.16;;;21.56;48.48
72961;BME280;61141;46.204;19.774;2024-03-29T14:16:23;100040.59;;;21.55;48.08
72961;BME280;61141;46.204;19.774;2024-03-29T14:19:25;100053.25;;;21.69;48.65
72961;BME280;61141;46.204;19.774;2024-03-29T14:22:28;100061.00;;;21.65;48.67
72961;BME280;61141;46.204;19.774;2024-03-29T14:25:33;100058.59;;;21.76;50.05
72961;BME280;61141;46.204;19.774;2024-03-29T14:28:35;100053.97;;;21.60;49.06
72961;BME280;61141;46.204;19.774;2024-03-29T14:31:37;100055.75;;;21.54;49.09
72961;BME280;61141;46.204;19.774;2024-03-29T14:34:39;100054.22;;;21.53;49.90
72961;BME280;61141;46.204;19.774;2024-03-29T14:37:46;100059.00;;;21.53;50.21
72961;BME280;61141;46.204;19.774;2024-03-29T14:40:48;100054.06;;;21.57;49.64
72961;BME280;61141;46.204;19.774;2024-03-29T14:43:49;100046.63;;;21.54;49.65
72961;BME280;61141;46.204;19.774;2024-03-29T14:46:53;100048.22;;;21.42;49.05
72961;BME280;61141;46.204;19.774;2024-03-29T14:49:55;100041.19;;;21.38;49.68
72961;BME280;61141;46.204;19.774;2024-03-29T14:52:57;100041.56;;;21.27;49.01
72961;BME280;61141;46.204;19.774;2024-03-29T14:55:58;100039.72;;;21.12;49.68
72961;BME280;61141;46.204;19.774;2024-03-29T14:59:05;100036.00;;;21.02;50.49
72961;BME280;61141;46.204;19.774;2024-03-29T15:02:07;100040.72;;;20.92;50.40
72961;BME280;61141;46.204;19.774;2024-03-29T15:05:09;100034.03;;;20.90;50.35
72961;BME280;61141;46.204;19.774;2024-03-29T15:08:13;100038.59;;;20.84;51.00
72961;BME280;61141;46.204;19.774;2024-03-29T15:11:18;100034.38;;;20.79;51.23
72961;BME280;61141;46.204;19.774;2024-03-29T15:14:20;100043.94;;;20.78;50.90
72961;BME280;61141;46.204;19.774;2024-03-29T15:17:22;100042.50;;;20.74;51.14
72961;BME280;61141;46.204;19.774;2024-03-29T15:20:24;100044.28;;;20.68;51.59
72961;BME280;61141;46.204;19.774;2024-03-29T15:23:28;100056.97;;;20.69;52.35
72961;BME280;61141;46.204;19.774;2024-03-29T15:26:29;100033.91;;;20.56;52.93
72961;BME280;61141;46.204;19.774;2024-03-29T15:29:31;100045.03;;;20.56;52.96
72961;BME280;61141;46.204;19.774;2024-03-29T15:32:33;100045.94;;;20.52;53.23
72961;BME280;61141;46.204;19.774;2024-03-29T15:35:36;100053.63;;;20.48;53.49
72961;BME280;61141;46.204;19.774;2024-03-29T15:38:38;100053.50;;;20.39;54.01
72961;BME280;61141;46.204;19.774;2024-03-29T15:41:40;100041.00;;;20.31;54.66
72961;BME280;61141;46.204;19.774;2024-03-29T15:44:42;100050.34;;;20.25;54.84
72961;BME280;61141;46.204;19.774;2024-03-29T15:47:44;100052.53;;;20.17;56.17
72961;BME280;61141;46.204;19.774;2024-03-29T15:50:46;100054.63;;;20.13;55.71